createdAt,value
2022-09-04T04:22:35.503Z,5.62
2022-09-04T04:23:37.621Z,5.62
2022-09-04T04:24:39.801Z,5.62
2022-09-04T04:25:40.760Z,5.62
2022-09-04T04:26:42.888Z,5.62
2022-09-04T04:27:45.009Z,5.62
2022-09-04T04:28:47.212Z,5.62
2022-09-04T04:29:49.343Z,11.25
2022-09-04T04:30:50.530Z,11.25
2022-09-04T04:31:52.664Z,11.25
2022-09-04T04:32:54.776Z,11.25
2022-09-04T04:33:56.896Z,11.25
2022-09-04T04:34:58.110Z,11.25
2022-09-04T04:36:00.256Z,11.25
2022-09-04T04:37:01.249Z,11.25
2022-09-04T04:38:03.407Z,16.87
2022-09-04T04:39:05.500Z,16.87
2022-09-04T04:40:07.687Z,16.87
2022-09-04T04:41:08.695Z,16.87
2022-09-04T04:42:10.820Z,22.50
2022-09-04T04:43:12.048Z,22.50
2022-09-04T04:44:13.091Z,22.50
2022-09-04T04:45:15.220Z,28.12
2022-09-04T04:46:17.444Z,28.12
2022-09-04T04:47:19.727Z,28.12
2022-09-04T04:48:21.852Z,33.75
2022-09-04T04:49:23.979Z,33.75
2022-09-04T04:50:26.126Z,33.75
2022-09-04T04:51:28.250Z,39.37
2022-09-04T04:52:36.511Z,39.37
2022-09-04T04:53:31.635Z,39.37
2022-09-04T04:54:33.764Z,39.37
2022-09-04T04:55:35.891Z,45.00
2022-09-04T04:56:36.866Z,45.00
2022-09-04T04:57:37.867Z,45.00
2022-09-04T04:59:41.764Z,50.62
2022-09-04T05:00:43.891Z,50.62
2022-09-04T05:01:46.077Z,56.25
2022-09-04T05:02:47.263Z,56.25
2022-09-04T05:03:48.331Z,67.50
2022-09-04T05:04:49.492Z,73.12
2022-09-04T05:05:50.459Z,73.12
2022-09-04T05:06:52.575Z,73.12
2022-09-04T05:07:54.693Z,73.12
2022-09-04T05:08:56.817Z,78.75
2022-09-04T05:10:03.861Z,90.00
2022-09-04T05:10:59.081Z,106.87
2022-09-04T05:12:00.067Z,106.87
2022-09-04T05:13:02.319Z,106.87
2022-09-04T05:14:04.461Z,112.50
2022-09-04T05:15:06.576Z,106.87
2022-09-04T05:16:09.895Z,95.62
2022-09-04T05:17:10.012Z,90.00
2022-09-04T05:18:12.199Z,84.37
2022-09-04T05:19:14.324Z,78.75
2022-09-04T05:20:16.549Z,78.75
2022-09-04T05:21:18.666Z,73.12
2022-09-04T05:22:20.794Z,73.12
2022-09-04T05:23:21.796Z,67.50
2022-09-04T05:24:24.118Z,67.50
2022-09-04T05:25:25.305Z,67.50
2022-09-04T05:26:27.435Z,67.50
2022-09-04T05:27:29.562Z,67.50
2022-09-04T05:28:31.693Z,67.50
2022-09-04T05:29:32.889Z,67.50
2022-09-04T05:30:33.855Z,67.50
2022-09-04T05:31:37.776Z,67.50
2022-09-04T05:32:37.065Z,67.50
2022-09-04T05:33:38.013Z,67.50
2022-09-04T05:34:39.085Z,67.50
2022-09-04T05:35:41.234Z,67.50
2022-09-04T05:36:42.766Z,67.50
2022-09-04T05:37:44.668Z,67.50
2022-09-04T05:38:47.066Z,67.50
2022-09-04T05:39:48.097Z,73.12
2022-09-04T05:40:49.354Z,78.75
2022-09-04T05:41:51.470Z,84.37
2022-09-04T05:42:53.852Z,84.37
2022-09-04T05:43:54.851Z,90.00
2022-09-04T05:44:57.005Z,95.62
2022-09-04T05:45:58.006Z,101.25
2022-09-04T05:46:59.011Z,106.87
2022-09-04T05:48:07.184Z,112.50
2022-09-04T05:49:02.403Z,118.12
2022-09-04T05:50:03.503Z,129.37
2022-09-04T05:51:05.674Z,135.00
2022-09-04T05:52:07.772Z,140.62
2022-09-04T05:53:10.027Z,146.25
2022-09-04T05:54:12.115Z,151.87
2022-09-04T05:55:14.229Z,157.50
2022-09-04T05:56:16.354Z,168.75
2022-09-04T05:57:18.529Z,180.00
2022-09-04T05:58:20.711Z,196.87
2022-09-04T05:59:21.747Z,208.12
2022-09-04T06:00:23.892Z,219.37
2022-09-04T06:01:26.054Z,230.62
2022-09-04T06:02:28.330Z,225.00
2022-09-04T06:03:29.395Z,236.25
2022-09-04T06:04:31.560Z,230.62
2022-09-04T06:05:32.796Z,230.62
2022-09-04T06:06:34.937Z,236.25
2022-09-04T06:07:37.177Z,241.87
2022-09-04T06:08:39.301Z,247.50
2022-09-04T06:09:41.478Z,247.50
2022-09-04T06:10:43.591Z,253.12
2022-09-04T06:11:45.754Z,253.12
2022-09-04T06:12:46.710Z,253.12
2022-09-04T06:13:48.802Z,253.12
2022-09-04T06:14:50.252Z,258.75
2022-09-04T06:15:51.268Z,258.75
2022-09-04T06:16:53.481Z,258.75
2022-09-04T06:17:55.616Z,264.37
2022-09-04T06:18:57.828Z,258.75
2022-09-04T06:19:58.777Z,253.12
2022-09-04T06:20:59.866Z,247.50
2022-09-04T06:22:00.820Z,241.87
2022-09-04T06:23:03.301Z,241.87
2022-09-04T06:24:04.295Z,241.87
2022-09-04T06:25:07.495Z,236.25
2022-09-04T06:26:07.971Z,241.87
2022-09-04T06:27:10.090Z,241.87
2022-09-04T06:28:11.077Z,236.25
2022-09-04T06:29:13.203Z,236.25
2022-09-04T06:30:15.363Z,236.25
2022-09-04T06:31:17.625Z,236.25
2022-09-04T06:32:18.601Z,236.25
2022-09-04T06:33:20.742Z,241.87
2022-09-04T06:34:22.494Z,241.87
2022-09-04T06:35:23.501Z,241.87
2022-09-04T06:36:24.704Z,241.87
2022-09-04T06:37:26.831Z,247.50
2022-09-04T06:38:28.918Z,253.12
2022-09-04T06:39:31.066Z,258.75
2022-09-04T06:40:32.108Z,258.75
2022-09-04T06:41:34.233Z,264.37
2022-09-04T06:42:35.330Z,270.00
2022-09-04T06:43:37.980Z,275.62
2022-09-04T06:44:39.085Z,281.25
2022-09-04T06:45:41.381Z,286.87
2022-09-04T06:46:42.391Z,292.50
2022-09-04T06:47:43.388Z,298.12
2022-09-04T06:48:45.526Z,303.75
2022-09-04T06:49:47.656Z,315.00
2022-09-04T06:50:49.776Z,320.62
2022-09-04T06:51:52.006Z,326.25
2022-09-04T06:52:53.152Z,337.50
2022-09-04T06:53:55.288Z,343.12
2022-09-04T06:54:56.502Z,354.37
2022-09-04T06:55:58.657Z,360.00
2022-09-04T06:57:00.784Z,371.25
2022-09-04T06:58:03.044Z,371.25
2022-09-04T06:59:04.039Z,382.50
2022-09-04T07:00:06.177Z,388.12
2022-09-04T07:01:14.455Z,393.75
2022-09-04T07:02:09.816Z,399.37
2022-09-04T07:03:10.818Z,410.62
2022-09-04T07:04:12.915Z,421.87
2022-09-04T07:05:14.034Z,483.75
2022-09-04T07:06:16.172Z,478.12
2022-09-04T07:07:18.270Z,528.75
2022-09-04T07:08:20.503Z,528.75
2022-09-04T07:09:21.566Z,573.75
2022-09-04T07:10:23.684Z,585.00
2022-09-04T07:11:25.829Z,765.00
2022-09-04T07:12:27.959Z,675.00
2022-09-04T07:13:30.083Z,821.25
2022-09-04T07:14:32.217Z,1147.50
2022-09-04T07:15:34.381Z,1029.37
2022-09-04T07:16:35.412Z,736.87
2022-09-04T07:17:37.656Z,601.87
2022-09-04T07:18:38.668Z,534.37
2022-09-04T07:19:40.819Z,528.75
2022-09-04T07:20:42.978Z,540.00
2022-09-04T07:21:43.969Z,551.25
2022-09-04T07:22:46.085Z,579.37
2022-09-04T07:23:47.361Z,663.75
2022-09-04T07:24:49.487Z,607.50
2022-09-04T07:25:51.638Z,579.37
2022-09-04T07:26:52.620Z,545.62
2022-09-04T07:27:54.743Z,540.00
2022-09-04T07:28:56.894Z,528.75
2022-09-04T07:29:59.036Z,528.75
2022-09-04T07:31:00.014Z,748.12
2022-09-04T07:32:00.991Z,646.87
2022-09-04T07:33:03.218Z,635.62
2022-09-04T07:34:04.170Z,573.75
2022-09-04T07:35:06.335Z,568.12
2022-09-04T07:36:08.521Z,540.00
2022-09-04T07:37:10.635Z,556.87
2022-09-04T07:38:11.631Z,590.62
2022-09-04T07:39:18.798Z,630.00
2022-09-04T07:40:14.030Z,675.00
2022-09-04T07:41:17.787Z,821.25
2022-09-04T07:42:16.601Z,787.50
2022-09-04T07:43:18.737Z,911.25
2022-09-04T07:44:20.919Z,866.25
2022-09-04T07:45:21.882Z,1051.87
2022-09-04T07:46:23.049Z,860.62
2022-09-04T07:47:24.042Z,787.50
2022-09-04T07:48:26.425Z,804.37
2022-09-04T07:49:27.461Z,821.25
2022-09-04T07:50:29.197Z,973.12
2022-09-04T07:51:31.322Z,1434.37
2022-09-04T07:52:33.654Z,1108.12
2022-09-04T07:53:40.682Z,928.12
2022-09-04T07:54:35.901Z,1018.12
2022-09-04T07:55:44.183Z,1040.62
2022-09-04T07:56:39.586Z,1023.75
2022-09-04T07:57:40.899Z,990.00
2022-09-04T07:58:41.857Z,1063.12
2022-09-04T07:59:44.269Z,984.37
2022-09-04T08:00:45.231Z,995.62
2022-09-04T08:01:46.921Z,995.62
2022-09-04T08:02:47.979Z,894.37
2022-09-04T08:03:56.301Z,883.12
2022-09-04T08:04:51.560Z,866.25
2022-09-04T08:05:52.844Z,838.12
2022-09-04T08:06:54.023Z,939.37
2022-09-04T08:07:56.384Z,855.00
2022-09-04T08:08:57.434Z,804.37
2022-09-04T08:09:58.605Z,759.37
2022-09-04T08:11:00.797Z,826.87
2022-09-04T08:12:02.966Z,995.62
2022-09-04T08:13:05.283Z,815.62
2022-09-04T08:14:07.487Z,736.87
2022-09-04T08:15:08.450Z,697.50
2022-09-04T08:16:09.751Z,697.50
2022-09-04T08:17:10.951Z,720.00
2022-09-04T08:18:12.337Z,776.25
2022-09-04T08:19:14.592Z,855.00
2022-09-04T08:20:14.496Z,1023.75
2022-09-04T08:21:16.627Z,1186.87
2022-09-04T08:22:18.803Z,1445.62
2022-09-04T08:23:20.934Z,1473.75
2022-09-04T08:24:21.959Z,1378.12
2022-09-04T08:25:24.046Z,1456.87
2022-09-04T08:26:25.148Z,1575.00
2022-09-04T08:27:26.390Z,1726.87
2022-09-04T08:28:28.477Z,1743.75
2022-09-04T08:29:30.619Z,1591.87
2022-09-04T08:30:32.725Z,1563.75
2022-09-04T08:31:34.873Z,1687.50
2022-09-04T08:32:38.402Z,1681.87
2022-09-04T08:33:38.650Z,1631.25
2022-09-04T08:34:39.910Z,1586.25
2022-09-04T08:35:40.913Z,1530.00
2022-09-04T08:36:43.089Z,1558.12
2022-09-04T08:37:45.213Z,1575.00
2022-09-04T08:38:47.353Z,1586.25
2022-09-04T08:39:48.498Z,1614.37
2022-09-04T08:40:50.744Z,1687.50
2022-09-04T08:41:52.099Z,1766.25
2022-09-04T08:42:54.242Z,1788.75
2022-09-04T08:43:56.371Z,1816.87
2022-09-04T08:44:58.528Z,1788.75
2022-09-04T08:46:00.772Z,1766.25
2022-09-04T08:47:01.806Z,1805.62
2022-09-04T08:48:04.025Z,1794.37
2022-09-04T08:49:05.546Z,1687.50
2022-09-04T08:50:07.637Z,1659.37
2022-09-04T08:51:08.611Z,1586.25
2022-09-04T08:52:09.653Z,1552.50
2022-09-04T08:53:11.777Z,1541.25
2022-09-04T08:54:13.899Z,1670.62
2022-09-04T08:55:16.028Z,1726.87
2022-09-04T08:56:18.165Z,1715.62
2022-09-04T08:57:20.317Z,1721.25
2022-09-04T08:58:22.547Z,1681.87
2022-09-04T08:59:23.569Z,1648.12
2022-09-04T09:00:25.128Z,1816.87
2022-09-04T09:01:27.320Z,1890.00
2022-09-04T09:02:29.559Z,1901.25
2022-09-04T09:03:31.709Z,1895.62
2022-09-04T09:04:33.840Z,1839.37
2022-09-04T09:05:35.961Z,1833.75
2022-09-04T09:06:38.124Z,1890.00
2022-09-04T09:07:40.266Z,1884.37
2022-09-04T09:08:48.503Z,1839.37
2022-09-04T09:09:43.587Z,1861.87
2022-09-04T09:10:45.700Z,1923.75
2022-09-04T09:11:47.825Z,1918.12
2022-09-04T09:12:49.980Z,1873.12
2022-09-04T09:13:52.118Z,1586.25
2022-09-04T09:14:54.260Z,1248.75
2022-09-04T09:15:55.220Z,1333.12
2022-09-04T09:16:57.387Z,1828.12
2022-09-04T09:17:59.518Z,1816.87
2022-09-04T09:19:01.681Z,1783.12
2022-09-04T09:20:02.775Z,1816.87
2022-09-04T09:21:04.904Z,1788.75
2022-09-04T09:22:07.057Z,1935.00
2022-09-04T09:23:09.181Z,2160.00
2022-09-04T09:24:11.325Z,1929.37
2022-09-04T09:25:12.310Z,1687.50
2022-09-04T09:26:14.494Z,1563.75
2022-09-04T09:27:16.619Z,1951.87
2022-09-04T09:28:18.762Z,1271.25
2022-09-04T09:29:19.736Z,1192.50
2022-09-04T09:30:20.721Z,1068.75
2022-09-04T09:31:22.941Z,1046.25
2022-09-04T09:32:24.001Z,1006.87
2022-09-04T09:33:26.309Z,1063.12
2022-09-04T09:34:27.460Z,990.00
2022-09-04T09:35:29.589Z,1012.50
2022-09-04T09:36:30.607Z,1091.25
2022-09-04T09:37:32.793Z,1237.50
2022-09-04T09:38:34.990Z,1603.12
2022-09-04T09:39:37.173Z,1175.62
2022-09-04T09:40:39.357Z,1018.12
2022-09-04T09:41:41.535Z,1237.50
2022-09-04T09:42:43.781Z,1755.00
2022-09-04T09:43:44.703Z,2491.87
2022-09-04T09:44:46.836Z,1243.12
2022-09-04T09:45:49.059Z,1732.50
2022-09-04T09:46:51.248Z,1428.75
2022-09-04T09:47:53.375Z,2390.62
2022-09-04T09:48:54.482Z,2317.50
2022-09-04T09:49:56.676Z,2244.37
2022-09-04T09:50:58.831Z,1721.25
2022-09-04T09:52:00.913Z,2300.62
2022-09-04T09:53:03.031Z,1833.75
2022-09-04T09:54:05.240Z,2193.75
2022-09-04T09:55:07.365Z,2289.37
2022-09-04T09:56:09.544Z,1800.00
2022-09-04T09:57:11.736Z,1513.12
2022-09-04T09:58:12.734Z,1563.75
2022-09-04T09:59:13.698Z,2227.50
2022-09-04T10:00:15.896Z,2238.75
2022-09-04T10:01:16.978Z,2171.25
2022-09-04T10:02:18.033Z,2058.75
2022-09-04T10:03:20.282Z,2036.25
2022-09-04T10:04:22.421Z,2086.87
2022-09-04T10:05:24.546Z,2086.87
2022-09-04T10:06:26.677Z,2092.50
2022-09-04T10:07:28.842Z,2182.50
2022-09-04T10:08:35.557Z,2154.37
2022-09-04T10:09:32.241Z,2171.25
2022-09-04T10:10:33.197Z,2154.37
2022-09-04T10:11:34.242Z,2092.50
2022-09-04T10:12:36.384Z,2103.75
2022-09-04T10:13:38.579Z,2047.50
2022-09-04T10:14:41.270Z,2120.62
2022-09-04T10:15:42.190Z,2188.12
2022-09-04T10:16:43.504Z,2137.50
2022-09-04T10:17:45.646Z,1968.75
2022-09-04T10:18:47.768Z,1850.62
2022-09-04T10:19:49.995Z,1845.00
2022-09-04T10:20:52.139Z,2002.50
2022-09-04T10:21:54.261Z,2165.62
2022-09-04T10:22:56.380Z,2176.87
2022-09-04T10:23:58.505Z,2160.00
2022-09-04T10:25:00.651Z,2075.62
2022-09-04T10:26:01.686Z,2115.00
2022-09-04T10:27:02.652Z,2075.62
2022-09-04T10:28:03.612Z,2086.87
2022-09-04T10:29:04.564Z,2143.12
2022-09-04T10:30:06.689Z,2210.62
2022-09-04T10:31:08.843Z,2289.37
2022-09-04T10:32:11.034Z,2311.87
2022-09-04T10:33:13.469Z,2266.87
2022-09-04T10:34:14.394Z,2261.25
2022-09-04T10:35:16.791Z,2210.62
2022-09-04T10:36:17.827Z,2238.75
2022-09-04T10:37:19.991Z,2255.62
2022-09-04T10:38:22.122Z,2244.37
2022-09-04T10:39:24.289Z,2188.12
2022-09-04T10:40:26.441Z,2188.12
2022-09-04T10:41:28.700Z,2171.25
2022-09-04T10:42:30.846Z,2109.37
2022-09-04T10:43:32.952Z,2154.37
2022-09-04T10:44:35.081Z,2160.00
2022-09-04T10:45:37.433Z,2227.50
2022-09-04T10:46:38.440Z,2244.37
2022-09-04T10:47:40.573Z,2165.62
2022-09-04T10:48:41.526Z,2070.00
2022-09-04T10:49:43.656Z,2030.62
2022-09-04T10:50:45.780Z,2002.50
2022-09-04T10:51:47.900Z,1901.25
2022-09-04T10:52:48.970Z,1935.00
2022-09-04T10:53:51.114Z,1974.37
2022-09-04T10:54:53.342Z,1951.87
2022-09-04T10:55:55.475Z,2013.75
2022-09-04T10:56:56.927Z,2041.87
2022-09-04T10:57:59.058Z,2126.25
2022-09-04T10:59:01.195Z,2210.62
2022-09-04T11:00:03.346Z,2126.25
2022-09-04T11:01:05.077Z,2047.50
2022-09-04T11:02:06.123Z,2058.75
2022-09-04T11:03:08.298Z,2064.37
2022-09-04T11:04:10.430Z,2098.12
2022-09-04T11:05:12.590Z,2115.00
2022-09-04T11:06:15.830Z,2103.75
2022-09-04T11:07:17.057Z,2075.62
2022-09-04T11:08:18.103Z,2058.75
2022-09-04T11:09:20.289Z,2227.50
2022-09-04T11:10:22.412Z,2255.62
2022-09-04T11:11:24.538Z,2340.00
2022-09-04T11:12:26.659Z,2283.75
2022-09-04T11:13:28.783Z,2328.75
2022-09-04T11:14:30.908Z,2373.75
2022-09-04T11:15:33.141Z,2362.50
2022-09-04T11:16:34.187Z,2396.25
2022-09-04T11:17:36.442Z,2441.25
2022-09-04T11:18:37.403Z,2446.87
2022-09-04T11:19:38.779Z,2362.50
2022-09-04T11:20:39.728Z,2300.62
2022-09-04T11:21:41.856Z,2289.37
2022-09-04T11:22:43.983Z,2373.75
2022-09-04T11:23:46.104Z,2424.37
2022-09-04T11:24:48.396Z,2401.87
2022-09-04T11:25:50.520Z,2373.75
2022-09-04T11:26:52.692Z,2323.12
2022-09-04T11:27:53.743Z,2311.87
2022-09-04T11:28:55.831Z,2334.37
2022-09-04T11:30:02.965Z,2272.50
2022-09-04T11:30:58.112Z,2261.25
2022-09-04T11:32:00.309Z,2295.00
2022-09-04T11:33:01.377Z,2334.37
2022-09-04T11:34:02.803Z,2238.75
2022-09-04T11:35:04.938Z,2205.00
2022-09-04T11:36:05.906Z,2250.00
2022-09-04T11:37:06.862Z,2306.25
2022-09-04T11:38:08.015Z,2295.00
2022-09-04T11:39:09.046Z,2210.62
2022-09-04T11:40:10.160Z,2165.62
2022-09-04T11:41:12.360Z,2109.37
2022-09-04T11:42:14.480Z,2143.12
2022-09-04T11:43:16.630Z,2103.75
2022-09-04T11:44:18.765Z,2115.00
2022-09-04T11:45:21.035Z,2131.87
2022-09-04T11:46:22.133Z,2126.25
2022-09-04T11:47:23.173Z,2109.37
2022-09-04T11:48:25.276Z,2210.62
2022-09-04T11:49:27.606Z,2261.25
2022-09-04T11:50:28.563Z,2238.75
2022-09-04T11:51:29.654Z,2199.37
2022-09-04T11:52:30.827Z,2216.25
2022-09-04T11:53:32.964Z,2328.75
2022-09-04T11:54:35.088Z,2283.75
2022-09-04T11:55:37.277Z,2199.37
2022-09-04T11:56:38.274Z,2182.50
2022-09-04T11:57:40.392Z,2227.50
2022-09-04T11:58:41.396Z,2278.12
2022-09-04T11:59:43.512Z,2272.50
2022-09-04T12:00:45.645Z,2216.25
2022-09-04T12:01:48.140Z,2255.62
2022-09-04T12:02:49.120Z,2317.50
2022-09-04T12:03:51.360Z,2238.75
2022-09-04T12:04:52.398Z,2030.62
2022-09-04T12:05:54.518Z,1861.87
2022-09-04T12:06:56.648Z,1816.87
2022-09-04T12:07:58.786Z,1856.25
2022-09-04T12:09:00.915Z,1760.62
2022-09-04T12:10:03.071Z,1620.00
2022-09-04T12:11:05.236Z,1648.12
2022-09-04T12:12:07.369Z,1811.25
2022-09-04T12:13:15.704Z,1974.37
2022-09-04T12:14:10.928Z,2041.87
2022-09-04T12:15:13.059Z,2120.62
2022-09-04T12:16:15.479Z,2154.37
2022-09-04T12:17:16.727Z,2154.37
2022-09-04T12:18:17.747Z,2126.25
2022-09-04T12:19:20.147Z,2019.37
2022-09-04T12:20:21.122Z,1974.37
2022-09-04T12:21:23.251Z,1963.12
2022-09-04T12:22:25.345Z,1963.12
2022-09-04T12:23:27.478Z,1940.62
2022-09-04T12:24:29.602Z,2002.50
2022-09-04T12:25:31.907Z,2120.62
2022-09-04T12:26:34.060Z,2171.25
2022-09-04T12:27:36.203Z,2126.25
2022-09-04T12:28:37.162Z,2126.25
2022-09-04T12:29:39.247Z,2154.37
2022-09-04T12:30:41.423Z,2171.25
2022-09-04T12:31:51.542Z,2025.00
2022-09-04T12:32:44.606Z,1248.75
2022-09-04T12:33:45.641Z,472.50
2022-09-04T12:34:47.847Z,326.25
2022-09-04T12:35:49.996Z,315.00
2022-09-04T12:36:52.118Z,303.75
2022-09-04T12:37:54.247Z,298.12
2022-09-04T12:38:56.386Z,292.50
2022-09-04T12:39:58.582Z,286.87
2022-09-04T12:41:00.837Z,275.62
2022-09-04T12:42:03.035Z,275.62
2022-09-04T12:43:05.125Z,270.00
2022-09-04T12:44:07.262Z,264.37
2022-09-04T12:45:09.395Z,264.37
2022-09-04T12:46:10.516Z,264.37
2022-09-04T12:47:11.506Z,264.37
2022-09-04T12:48:13.038Z,258.75
2022-09-04T12:49:13.990Z,258.75
2022-09-04T12:50:16.133Z,253.12
2022-09-04T12:51:18.266Z,253.12
2022-09-04T12:52:20.406Z,253.12
2022-09-04T12:53:22.626Z,253.12
2022-09-04T12:54:30.850Z,247.50
2022-09-04T12:55:26.196Z,241.87
2022-09-04T12:56:28.431Z,236.25
2022-09-04T12:57:29.433Z,241.87
2022-09-04T12:58:31.554Z,241.87
2022-09-04T12:59:33.724Z,236.25
2022-09-04T13:00:40.888Z,230.62
2022-09-04T13:01:38.237Z,230.62
2022-09-04T13:02:39.314Z,230.62
2022-09-04T13:03:47.603Z,230.62
2022-09-04T13:04:42.791Z,230.62
2022-09-04T13:05:52.746Z,230.62
2022-09-04T13:06:53.697Z,230.62
2022-09-04T13:07:47.695Z,230.62
2022-09-04T13:08:49.879Z,230.62
2022-09-04T13:09:53.689Z,236.25
2022-09-04T13:10:53.735Z,236.25
2022-09-04T13:11:55.879Z,236.25
2022-09-04T13:12:58.035Z,236.25
2022-09-04T13:14:00.156Z,230.62
2022-09-04T13:15:02.283Z,230.62
2022-09-04T13:16:09.653Z,225.00
2022-09-04T13:17:04.803Z,225.00
2022-09-04T13:18:06.920Z,225.00
2022-09-04T13:19:08.543Z,219.37
2022-09-04T13:20:10.698Z,219.37
2022-09-04T13:21:12.898Z,219.37
2022-09-04T13:22:14.981Z,213.75
2022-09-04T13:23:17.668Z,208.12
2022-09-04T13:24:24.883Z,208.12
2022-09-04T13:25:20.038Z,208.12
2022-09-04T13:26:22.226Z,208.12
2022-09-04T13:27:24.350Z,208.12
2022-09-04T13:28:26.459Z,208.12
2022-09-04T13:29:27.660Z,208.12
2022-09-04T13:30:29.823Z,202.50
2022-09-04T13:31:31.992Z,202.50
2022-09-04T13:32:33.179Z,202.50
2022-09-04T13:33:35.304Z,202.50
2022-09-04T13:34:37.494Z,202.50
2022-09-04T13:35:38.728Z,196.87
2022-09-04T13:36:40.913Z,196.87
2022-09-04T13:37:41.882Z,196.87
2022-09-04T13:38:43.516Z,196.87
2022-09-04T13:39:45.730Z,191.25
2022-09-04T13:40:47.911Z,196.87
2022-09-04T13:41:50.233Z,196.87
2022-09-04T13:42:52.493Z,196.87
2022-09-04T13:43:52.553Z,196.87
2022-09-04T13:44:54.717Z,196.87
2022-09-04T13:45:55.672Z,196.87
2022-09-04T13:46:58.067Z,196.87
2022-09-04T13:47:59.140Z,196.87
2022-09-04T13:49:06.399Z,196.87
2022-09-04T13:50:01.515Z,191.25
2022-09-04T13:51:03.643Z,191.25
2022-09-04T13:52:05.889Z,185.62
2022-09-04T13:53:06.892Z,185.62
2022-09-04T13:54:09.161Z,185.62
2022-09-04T13:55:11.289Z,185.62
2022-09-04T13:56:13.436Z,180.00
2022-09-04T13:57:15.557Z,180.00
2022-09-04T13:58:17.685Z,180.00
2022-09-04T13:59:19.820Z,185.62
2022-09-04T14:00:21.984Z,185.62
2022-09-04T14:01:24.389Z,185.62
2022-09-04T14:03:27.349Z,185.62
2022-09-04T14:04:28.789Z,185.62
2022-09-04T14:05:29.808Z,180.00
2022-09-04T14:06:31.928Z,180.00
2022-09-04T14:07:34.046Z,180.00
2022-09-04T14:08:36.416Z,174.37
2022-09-04T14:09:37.398Z,174.37
2022-09-04T14:10:39.528Z,174.37
2022-09-04T14:11:41.748Z,174.37
2022-09-04T14:12:42.743Z,168.75
2022-09-04T14:13:44.996Z,174.37
2022-09-04T14:14:45.979Z,174.37
2022-09-04T14:15:47.376Z,174.37
2022-09-04T14:16:48.344Z,174.37
2022-09-04T14:17:50.582Z,174.37
2022-09-04T14:18:51.535Z,168.75
2022-09-04T14:19:53.665Z,174.37
2022-09-04T14:20:55.301Z,174.37
2022-09-04T14:21:56.709Z,174.37
2022-09-04T14:22:57.795Z,174.37
2022-09-04T14:23:58.990Z,174.37
2022-09-04T14:25:01.109Z,168.75
2022-09-04T14:26:02.364Z,163.12
2022-09-04T14:27:04.490Z,168.75
2022-09-04T14:28:05.669Z,174.37
2022-09-04T14:29:07.784Z,180.00
2022-09-04T14:30:09.907Z,174.37
2022-09-04T14:31:12.075Z,168.75
2022-09-04T14:32:13.476Z,168.75
2022-09-04T14:33:21.679Z,168.75
2022-09-04T14:34:16.907Z,168.75
2022-09-04T14:35:17.886Z,174.37
2022-09-04T14:36:19.052Z,174.37
2022-09-04T14:37:20.449Z,174.37
2022-09-04T14:38:22.692Z,174.37
2022-09-04T14:39:23.710Z,180.00
2022-09-04T14:40:24.912Z,174.37
2022-09-04T14:41:25.868Z,174.37
2022-09-04T14:42:26.821Z,174.37
2022-09-04T14:43:28.007Z,174.37
2022-09-04T14:44:30.135Z,174.37
2022-09-04T14:45:32.274Z,174.37
2022-09-04T14:46:34.557Z,174.37
2022-09-04T14:47:35.577Z,174.37
2022-09-04T14:48:37.759Z,180.00
2022-09-04T14:49:38.710Z,180.00
2022-09-04T14:50:40.851Z,185.62
2022-09-04T14:51:43.193Z,185.62
2022-09-04T14:52:44.367Z,191.25
2022-09-04T14:53:46.584Z,196.87
2022-09-04T14:54:47.842Z,202.50
2022-09-04T14:55:48.768Z,208.12
2022-09-04T14:56:49.749Z,208.12
2022-09-04T14:57:51.001Z,213.75
2022-09-04T14:58:52.019Z,213.75
2022-09-04T14:59:54.158Z,213.75
2022-09-04T15:00:56.284Z,213.75
2022-09-04T15:01:58.538Z,208.12
2022-09-04T15:03:06.771Z,208.12
2022-09-04T15:04:02.064Z,202.50
2022-09-04T15:05:03.065Z,196.87
2022-09-04T15:06:05.228Z,196.87
2022-09-04T15:07:11.672Z,196.87
2022-09-04T15:08:07.691Z,196.87
2022-09-04T15:09:08.833Z,196.87
2022-09-04T15:10:10.227Z,196.87
2022-09-04T15:11:12.375Z,191.25
2022-09-04T15:12:24.172Z,191.25
2022-09-04T15:13:15.575Z,185.62
2022-09-04T15:14:16.694Z,185.62
2022-09-04T15:15:24.964Z,185.62
2022-09-04T15:16:20.410Z,180.00
2022-09-04T15:17:21.692Z,180.00
2022-09-04T15:18:23.812Z,174.37
2022-09-04T15:19:25.936Z,174.37
2022-09-04T15:20:28.075Z,168.75
2022-09-04T15:21:30.203Z,163.12
2022-09-04T15:22:32.334Z,163.12
2022-09-04T15:23:34.423Z,157.50
2022-09-04T15:24:36.549Z,151.87
2022-09-04T15:25:57.600Z,146.25
2022-09-04T15:26:45.827Z,146.25
2022-09-04T15:27:42.220Z,146.25
2022-09-04T15:28:43.390Z,140.62
2022-09-04T15:29:45.516Z,140.62
2022-09-04T15:30:47.727Z,135.00
2022-09-04T15:31:49.932Z,135.00
2022-09-04T15:32:56.998Z,135.00
2022-09-04T15:33:52.165Z,135.00
2022-09-04T15:34:53.123Z,129.37
2022-09-04T15:35:55.253Z,135.00
2022-09-04T15:36:57.413Z,135.00
2022-09-04T15:38:01.934Z,135.00
2022-09-04T15:39:01.401Z,135.00
2022-09-04T15:40:03.735Z,135.00
2022-09-04T15:41:18.173Z,135.00
2022-09-04T15:42:07.013Z,135.00
2022-09-04T15:43:07.983Z,140.62
2022-09-04T15:44:10.098Z,140.62
2022-09-04T15:45:11.758Z,140.62
2022-09-04T15:46:13.962Z,140.62
2022-09-04T15:47:15.197Z,140.62
2022-09-04T15:48:17.310Z,140.62
2022-09-04T15:49:19.442Z,140.62
2022-09-04T15:50:21.561Z,140.62
2022-09-04T15:51:23.737Z,135.00
2022-09-04T15:52:25.834Z,135.00
2022-09-04T15:53:28.207Z,135.00
2022-09-04T15:54:29.134Z,140.62
2022-09-04T15:55:30.439Z,146.25
2022-09-04T15:56:32.592Z,151.87
2022-09-04T15:57:34.726Z,157.50
2022-09-04T15:58:36.871Z,157.50
2022-09-04T15:59:39.123Z,157.50
2022-09-04T16:00:40.406Z,157.50
2022-09-04T16:01:42.591Z,157.50
2022-09-04T16:02:43.806Z,163.12
2022-09-04T16:03:44.879Z,168.75
2022-09-04T16:04:46.132Z,163.12
2022-09-04T16:05:47.309Z,157.50
2022-09-04T16:06:49.611Z,151.87
2022-09-04T16:07:54.417Z,140.62
2022-09-04T16:08:53.356Z,129.37
2022-09-04T16:09:55.437Z,123.75
2022-09-04T16:10:57.572Z,123.75
2022-09-04T16:11:59.696Z,118.12
2022-09-04T16:13:01.825Z,118.12
2022-09-04T16:14:02.859Z,118.12
2022-09-04T16:15:04.979Z,112.50
2022-09-04T16:16:07.136Z,112.50
2022-09-04T16:17:09.282Z,118.12
2022-09-04T16:18:11.406Z,123.75
2022-09-04T16:19:13.565Z,129.37
2022-09-04T16:20:14.618Z,135.00
2022-09-04T16:21:16.740Z,135.00
2022-09-04T16:22:18.919Z,135.00
2022-09-04T16:23:21.040Z,129.37
2022-09-04T16:24:23.162Z,123.75
2022-09-04T16:25:26.391Z,118.12
2022-09-04T16:26:26.488Z,106.87
2022-09-04T16:27:27.883Z,101.25
2022-09-04T16:28:34.936Z,101.25
2022-09-04T16:29:30.067Z,101.25
2022-09-04T16:30:32.255Z,101.25
2022-09-04T16:31:39.371Z,106.87
2022-09-04T16:32:34.542Z,101.25
2022-09-04T16:33:36.685Z,101.25
2022-09-04T16:34:37.638Z,95.62
2022-09-04T16:35:38.602Z,95.62
2022-09-04T16:36:39.565Z,90.00
2022-09-04T16:37:42.575Z,84.37
2022-09-04T16:38:42.445Z,78.75
2022-09-04T16:39:44.578Z,78.75
2022-09-04T16:40:46.751Z,78.75
2022-09-04T16:41:48.839Z,78.75
2022-09-04T16:42:50.966Z,73.12
2022-09-04T16:43:55.899Z,73.12
2022-09-04T16:44:55.305Z,73.12
2022-09-04T16:45:56.309Z,73.12
2022-09-04T16:46:58.564Z,73.12
2022-09-04T16:48:00.430Z,78.75
2022-09-04T16:49:01.996Z,78.75
2022-09-04T16:50:02.958Z,78.75
2022-09-04T16:51:15.895Z,78.75
2022-09-04T16:52:07.475Z,78.75
2022-09-04T16:53:12.771Z,73.12
2022-09-04T16:54:09.656Z,73.12
2022-09-04T16:55:11.899Z,73.12
2022-09-04T16:56:13.152Z,73.12
2022-09-04T16:57:15.273Z,73.12
2022-09-04T16:58:17.391Z,73.12
2022-09-04T16:59:19.764Z,73.12
2022-09-04T17:00:21.859Z,67.50
2022-09-04T17:01:22.918Z,67.50
2022-09-04T17:02:24.199Z,61.87
2022-09-04T17:03:26.277Z,61.87
2022-09-04T17:04:27.257Z,61.87
2022-09-04T17:05:29.397Z,61.87
2022-09-04T17:06:31.531Z,61.87
2022-09-04T17:07:33.667Z,61.87
2022-09-04T17:08:34.817Z,61.87
2022-09-04T17:09:36.902Z,61.87
2022-09-04T17:10:39.026Z,56.25